createdAt,value
2018-05-04T00:02:13.591Z,16.40
2018-05-04T00:04:39.681Z,16.40
2018-05-04T00:07:05.773Z,16.40
2018-05-04T00:09:31.898Z,16.30
2018-05-04T00:11:57.963Z,16.20
2018-05-04T00:14:24.093Z,16.20
2018-05-04T00:16:50.210Z,16.10
2018-05-04T00:19:16.347Z,16.10
2018-05-04T00:21:43.201Z,16.00
2018-05-04T00:24:10.038Z,15.90
2018-05-04T00:26:36.912Z,15.90
2018-05-04T00:29:03.033Z,15.80
2018-05-04T00:31:29.856Z,15.80
2018-05-04T00:33:55.978Z,15.70
2018-05-04T00:36:22.855Z,15.70
2018-05-04T00:38:49.701Z,15.70
2018-05-04T00:41:15.849Z,15.60
2018-05-04T00:43:41.987Z,15.70
2018-05-04T00:46:08.141Z,15.60
2018-05-04T00:48:34.248Z,15.60
2018-05-04T00:51:00.391Z,15.60
2018-05-04T00:53:26.481Z,15.60
2018-05-04T00:55:53.702Z,15.60
2018-05-04T00:58:20.561Z,15.50
2018-05-04T01:00:46.668Z,15.50
2018-05-04T01:03:12.786Z,15.50
2018-05-04T01:05:38.901Z,15.50
2018-05-04T01:08:05.754Z,15.50
2018-05-04T01:10:31.864Z,15.40
2018-05-04T01:12:57.972Z,15.40
2018-05-04T01:15:24.105Z,15.40
2018-05-04T01:17:50.223Z,15.40
2018-05-04T01:20:16.332Z,15.40
2018-05-04T01:22:42.457Z,15.40
2018-05-04T01:25:08.561Z,15.40
2018-05-04T01:27:34.671Z,15.40
2018-05-04T01:30:01.436Z,15.40
2018-05-04T01:32:28.324Z,15.30
2018-05-04T01:34:54.446Z,15.30
2018-05-04T01:37:20.577Z,15.30
2018-05-04T01:39:46.698Z,15.30
2018-05-04T01:42:12.849Z,15.30
2018-05-04T01:44:38.960Z,15.30
2018-05-04T01:47:05.830Z,15.30
2018-05-04T01:49:31.951Z,15.20
2018-05-04T01:51:58.796Z,15.20
2018-05-04T01:54:24.905Z,15.20
2018-05-04T01:56:51.137Z,15.20
2018-05-04T01:59:18.005Z,15.20
2018-05-04T02:01:44.848Z,15.20
2018-05-04T02:04:11.717Z,15.10
2018-05-04T02:06:37.824Z,15.10
2018-05-04T02:09:03.920Z,15.10
2018-05-04T02:11:30.030Z,15.10
2018-05-04T02:13:56.173Z,15.10
2018-05-04T02:16:22.293Z,15.10
2018-05-04T02:18:48.389Z,15.10
2018-05-04T02:21:15.228Z,15.00
2018-05-04T02:23:41.375Z,15.00
2018-05-04T02:26:08.218Z,15.00
2018-05-04T02:28:35.067Z,15.00
2018-05-04T02:31:01.173Z,14.90
2018-05-04T02:33:27.318Z,14.90
2018-05-04T02:35:53.419Z,14.90
2018-05-04T02:38:19.528Z,14.90
2018-05-04T02:40:45.624Z,14.90
2018-05-04T02:43:12.601Z,14.90
2018-05-04T02:45:38.689Z,14.80
2018-05-04T02:48:04.780Z,14.80
2018-05-04T02:50:30.885Z,14.80
2018-05-04T02:52:56.971Z,14.80
2018-05-04T02:55:24.375Z,14.80
2018-05-04T02:57:51.225Z,14.80
2018-05-04T03:00:17.358Z,14.80
2018-05-04T03:02:44.181Z,14.80
2018-05-04T03:05:10.361Z,14.70
2018-05-04T03:07:36.498Z,14.80
2018-05-04T03:10:02.621Z,14.80
2018-05-04T03:12:28.806Z,14.70
2018-05-04T03:14:54.892Z,14.70
2018-05-04T03:17:21.001Z,14.70
2018-05-04T03:19:47.134Z,14.70
2018-05-04T03:22:13.253Z,14.70
2018-05-04T03:24:39.362Z,14.60
2018-05-04T03:27:06.253Z,14.60
2018-05-04T03:29:33.252Z,14.60
2018-05-04T03:31:59.381Z,14.60
2018-05-04T03:34:25.521Z,14.60
2018-05-04T03:36:51.888Z,14.50
2018-05-04T03:39:18.737Z,14.50
2018-05-04T03:41:45.593Z,14.50
2018-05-04T03:44:12.456Z,14.40
2018-05-04T03:46:38.626Z,14.40
2018-05-04T03:49:04.744Z,14.40
2018-05-04T03:51:30.886Z,14.40
2018-05-04T03:53:56.986Z,14.30
2018-05-04T03:56:23.117Z,14.30
2018-05-04T03:59:01.739Z,14.20
2018-05-04T04:01:40.156Z,14.20
2018-05-04T04:04:10.906Z,14.20
2018-05-04T04:06:37.006Z,14.10
2018-05-04T04:09:04.889Z,14.20
2018-05-04T04:11:31.005Z,14.10
2018-05-04T04:13:57.843Z,14.20
2018-05-04T04:16:23.954Z,14.10
2018-05-04T04:18:50.074Z,14.20
2018-05-04T04:21:16.222Z,14.20
2018-05-04T04:23:42.354Z,14.20
2018-05-04T04:26:08.660Z,14.20
2018-05-04T04:28:34.784Z,14.20
2018-05-04T04:31:00.942Z,14.30
2018-05-04T04:33:27.044Z,14.30
2018-05-04T04:35:53.190Z,14.20
2018-05-04T04:38:20.053Z,14.30
2018-05-04T04:40:47.547Z,14.30
2018-05-04T04:43:14.523Z,14.30
2018-05-04T04:45:40.678Z,14.20
2018-05-04T04:48:06.777Z,14.30
2018-05-04T04:50:32.918Z,14.30
2018-05-04T04:52:59.773Z,14.30
2018-05-04T04:55:25.879Z,14.20
2018-05-04T04:57:52.796Z,14.30
2018-05-04T05:00:18.933Z,14.20
2018-05-04T05:02:45.069Z,14.30
2018-05-04T05:05:11.200Z,14.30
2018-05-04T05:07:37.895Z,14.30
2018-05-04T05:10:04.003Z,14.40
2018-05-04T05:12:30.875Z,14.40
2018-05-04T05:14:57.700Z,14.50
2018-05-04T05:17:23.793Z,14.40
2018-05-04T05:19:51.484Z,14.50
2018-05-04T05:22:17.594Z,14.50
2018-05-04T05:24:43.785Z,14.60
2018-05-04T05:27:09.998Z,14.60
2018-05-04T05:29:36.118Z,14.70
2018-05-04T05:32:02.268Z,14.70
2018-05-04T05:34:28.405Z,14.70
2018-05-04T05:36:54.523Z,14.70
2018-05-04T05:39:21.413Z,14.80
2018-05-04T05:41:47.568Z,14.70
2018-05-04T05:44:13.705Z,14.80
2018-05-04T05:46:40.637Z,14.80
2018-05-04T05:49:07.538Z,14.80
2018-05-04T05:51:33.621Z,14.90
2018-05-04T05:53:59.825Z,14.90
2018-05-04T05:56:25.952Z,14.90
2018-05-04T05:58:52.040Z,15.00
2018-05-04T06:01:18.162Z,15.00
2018-05-04T06:03:44.299Z,15.10
2018-05-04T06:06:10.408Z,15.10
2018-05-04T06:08:36.561Z,15.20
2018-05-04T06:11:02.660Z,15.20
2018-05-04T06:13:28.772Z,15.30
2018-05-04T06:15:55.652Z,15.40
2018-05-04T06:18:21.745Z,15.30
2018-05-04T06:20:47.845Z,15.40
2018-05-04T06:23:13.959Z,15.40
2018-05-04T06:25:40.288Z,15.50
2018-05-04T06:28:06.452Z,15.50
2018-05-04T06:30:32.606Z,15.60
2018-05-04T06:32:58.705Z,15.60
2018-05-04T06:35:24.857Z,15.70
2018-05-04T06:37:51.002Z,15.80
2018-05-04T06:40:17.855Z,16.00
2018-05-04T06:42:44.746Z,16.10
2018-05-04T06:45:10.875Z,16.10
2018-05-04T06:47:36.993Z,16.30
2018-05-04T06:50:03.116Z,16.50
2018-05-04T06:52:29.420Z,16.80
2018-05-04T06:54:56.262Z,17.50
2018-05-04T06:57:22.398Z,17.50
2018-05-04T06:59:48.517Z,18.00
2018-05-04T07:02:14.645Z,18.40
2018-05-04T07:04:40.752Z,18.90
2018-05-04T07:07:06.855Z,19.40
2018-05-04T07:09:33.737Z,20.40
2018-05-04T07:12:00.620Z,20.80
2018-05-04T07:14:26.737Z,20.70
2018-05-04T07:16:52.832Z,21.20
2018-05-04T07:19:18.935Z,21.60
2018-05-04T07:21:45.032Z,22.00
2018-05-04T07:24:11.142Z,22.40
2018-05-04T07:26:37.521Z,22.70
2018-05-04T07:29:03.610Z,23.00
2018-05-04T07:31:29.734Z,23.30
2018-05-04T07:33:55.836Z,23.50
2018-05-04T07:36:22.672Z,24.00
2018-05-04T07:38:48.945Z,24.00
2018-05-04T07:41:15.050Z,24.30
2018-05-04T07:43:41.250Z,24.50
2018-05-04T07:46:07.405Z,24.80
2018-05-04T07:48:33.509Z,25.00
2018-05-04T07:50:59.652Z,25.30
2018-05-04T07:53:25.820Z,25.60
2018-05-04T07:55:51.888Z,25.80
2018-05-04T07:58:18.278Z,26.10
2018-05-04T08:00:44.499Z,26.30
2018-05-04T08:03:10.670Z,26.60
2018-05-04T08:05:37.512Z,27.00
2018-05-04T08:08:04.357Z,27.20
2018-05-04T08:10:30.485Z,27.10
2018-05-04T08:12:57.328Z,27.50
2018-05-04T08:15:24.210Z,27.60
2018-05-04T08:17:50.327Z,27.60
2018-05-04T08:20:16.453Z,27.80
2018-05-04T08:22:42.627Z,28.00
2018-05-04T08:25:08.745Z,28.20
2018-05-04T08:27:34.880Z,28.30
2018-05-04T08:30:01.014Z,28.50
2018-05-04T08:32:27.118Z,28.60
2018-05-04T08:34:53.974Z,29.00
2018-05-04T08:37:20.141Z,28.90
2018-05-04T08:39:46.277Z,29.20
2018-05-04T08:42:12.385Z,29.40
2018-05-04T08:44:38.494Z,29.60
2018-05-04T08:47:05.348Z,30.00
2018-05-04T08:49:32.483Z,30.00
2018-05-04T08:51:59.309Z,30.50
2018-05-04T08:54:25.575Z,30.30
2018-05-04T08:56:51.632Z,30.50
2018-05-04T08:59:17.824Z,30.60
2018-05-04T09:01:44.608Z,30.70
2018-05-04T09:04:11.397Z,30.60
2018-05-04T09:06:37.536Z,30.70
2018-05-04T09:09:04.392Z,30.70
2018-05-04T09:11:30.533Z,30.70
2018-05-04T09:13:56.674Z,30.80
2018-05-04T09:16:23.633Z,30.90
2018-05-04T09:18:50.479Z,31.00
2018-05-04T09:21:17.600Z,31.10
2018-05-04T09:23:43.725Z,31.10
2018-05-04T09:26:09.829Z,31.20
2018-05-04T09:28:35.957Z,31.30
2018-05-04T09:31:02.946Z,31.40
2018-05-04T09:33:30.782Z,31.50
2018-05-04T09:35:56.979Z,31.40
2018-05-04T09:38:23.021Z,31.50
2018-05-04T09:40:49.865Z,31.60
2018-05-04T09:43:16.465Z,31.60
2018-05-04T09:45:42.564Z,31.80
2018-05-04T09:48:08.672Z,31.90
2018-05-04T09:50:35.534Z,32.20
2018-05-04T09:53:01.677Z,32.10
2018-05-04T09:55:27.821Z,32.20
2018-05-04T09:57:53.930Z,32.30
2018-05-04T10:00:20.166Z,32.20
2018-05-04T10:02:46.260Z,32.20
2018-05-04T10:05:12.383Z,32.10
2018-05-04T10:07:38.489Z,32.00
2018-05-04T10:10:04.729Z,32.00
2018-05-04T10:12:30.921Z,31.90
2018-05-04T10:14:57.032Z,31.90
2018-05-04T10:17:23.131Z,31.80
2018-05-04T10:19:49.262Z,31.70
2018-05-04T10:22:15.372Z,31.60
2018-05-04T10:24:41.511Z,31.50
2018-05-04T10:27:07.641Z,31.40
2018-05-04T10:29:34.717Z,31.40
2018-05-04T10:32:00.829Z,31.40
2018-05-04T10:34:26.929Z,31.50
2018-05-04T10:36:53.097Z,31.60
2018-05-04T10:39:19.191Z,31.60
2018-05-04T10:41:46.073Z,31.70
2018-05-04T10:44:12.189Z,31.60
2018-05-04T10:46:38.329Z,31.70
2018-05-04T10:49:04.498Z,31.80
2018-05-04T10:51:30.646Z,31.80
2018-05-04T10:53:56.752Z,31.80
2018-05-04T10:56:23.717Z,31.80
2018-05-04T10:58:49.833Z,31.80
2018-05-04T11:01:15.969Z,31.80
2018-05-04T11:03:42.054Z,31.70
2018-05-04T11:06:08.924Z,31.70
2018-05-04T11:08:35.068Z,31.60
2018-05-04T11:11:01.243Z,31.70
2018-05-04T11:13:27.301Z,31.70
2018-05-04T11:15:53.411Z,31.70
2018-05-04T11:18:20.302Z,31.80
2018-05-04T11:20:46.457Z,31.80
2018-05-04T11:23:12.590Z,31.90
2018-05-04T11:25:39.489Z,32.00
2018-05-04T11:28:06.329Z,32.00
2018-05-04T11:30:33.193Z,32.00
2018-05-04T11:32:59.310Z,31.90
2018-05-04T11:35:25.408Z,31.90
2018-05-04T11:37:51.546Z,31.80
2018-05-04T11:40:17.645Z,31.80
2018-05-04T11:42:43.872Z,31.70
2018-05-04T11:45:09.984Z,31.70
2018-05-04T11:47:36.868Z,31.50
2018-05-04T11:50:03.003Z,31.50
2018-05-04T11:52:29.105Z,31.40
2018-05-04T11:54:55.205Z,31.40
2018-05-04T11:57:22.162Z,31.30
2018-05-04T11:59:48.291Z,31.20
2018-05-04T12:02:14.420Z,31.20
2018-05-04T12:04:40.555Z,31.20
2018-05-04T12:07:07.441Z,31.20
2018-05-04T12:09:33.594Z,31.20
2018-05-04T12:11:59.740Z,31.20
2018-05-04T12:14:25.836Z,31.10
2018-05-04T12:16:51.953Z,31.20
2018-05-04T12:19:18.082Z,31.20
2018-05-04T12:21:44.696Z,31.10
2018-05-04T12:24:10.794Z,31.10
2018-05-04T12:26:37.008Z,31.10
2018-05-04T12:29:03.168Z,31.00
2018-05-04T12:31:29.263Z,31.00
2018-05-04T12:33:55.604Z,30.90
2018-05-04T12:36:21.732Z,30.80
2018-05-04T12:38:48.585Z,30.70
2018-05-04T12:41:15.433Z,30.60
2018-05-04T12:43:42.292Z,30.50
2018-05-04T12:46:08.418Z,30.50
2018-05-04T12:48:34.514Z,30.50
2018-05-04T12:51:00.657Z,30.40
2018-05-04T12:53:27.627Z,30.30
2018-05-04T12:55:54.260Z,30.20
2018-05-04T12:58:21.153Z,30.10
2018-05-04T13:00:47.261Z,30.10
2018-05-04T13:03:13.337Z,30.10
2018-05-04T13:05:39.472Z,30.00
2018-05-04T13:08:06.350Z,29.80
2018-05-04T13:10:33.268Z,29.70
2018-05-04T13:12:59.405Z,29.70
2018-05-04T13:15:25.507Z,29.60
2018-05-04T13:17:51.596Z,29.50
2018-05-04T13:20:18.491Z,29.30
2018-05-04T13:22:44.732Z,29.20
2018-05-04T13:25:10.832Z,29.10
2018-05-04T13:27:36.933Z,29.00
2018-05-04T13:30:03.813Z,28.70
2018-05-04T13:32:29.912Z,28.60
2018-05-04T13:34:56.012Z,28.60
2018-05-04T13:37:22.878Z,28.30
2018-05-04T13:39:49.073Z,28.30
2018-05-04T13:42:15.246Z,28.20
2018-05-04T13:44:42.142Z,28.00
2018-05-04T13:47:08.955Z,27.90
2018-05-04T13:49:35.053Z,27.80
2018-05-04T13:52:01.172Z,27.70
2018-05-04T13:54:27.310Z,27.70
2018-05-04T13:56:53.407Z,27.60
2018-05-04T13:59:19.528Z,27.50
2018-05-04T14:01:46.416Z,27.30
2018-05-04T14:06:35.720Z,27.20
2018-05-04T14:09:02.579Z,27.00
2018-05-04T14:11:28.696Z,27.00
2018-05-04T14:13:54.813Z,27.00
2018-05-04T14:16:20.941Z,26.90
2018-05-04T14:18:47.800Z,26.80
2018-05-04T14:21:13.911Z,26.80
2018-05-04T14:23:40.069Z,26.80
2018-05-04T14:26:06.175Z,26.70
2018-05-04T14:28:33.023Z,26.50
2018-05-04T14:30:59.854Z,26.40
2018-05-04T14:33:25.972Z,26.40
2018-05-04T14:35:52.059Z,26.40
2018-05-04T14:38:18.136Z,26.20
2018-05-04T14:40:44.240Z,26.10
2018-05-04T14:43:10.360Z,26.00
2018-05-04T14:45:36.465Z,25.90
2018-05-04T14:48:03.288Z,25.80
2018-05-04T14:50:29.433Z,25.70
2018-05-04T14:52:56.250Z,25.70
2018-05-04T14:55:22.328Z,25.60
2018-05-04T14:57:48.453Z,25.60
2018-05-04T15:00:15.298Z,25.50
2018-05-04T15:02:42.169Z,25.50
2018-05-04T15:05:08.247Z,25.40
2018-05-04T15:07:34.369Z,25.40
2018-05-04T15:10:00.542Z,25.30
2018-05-04T15:12:26.604Z,25.30
2018-05-04T15:14:52.669Z,25.20
2018-05-04T15:17:18.825Z,25.10
2018-05-04T15:19:45.134Z,25.00
2018-05-04T15:22:11.221Z,24.90
2018-05-04T15:24:37.411Z,24.90
2018-05-04T15:27:03.537Z,24.80
2018-05-04T15:29:29.645Z,24.80
2018-05-04T15:31:55.733Z,24.70
2018-05-04T15:34:21.824Z,24.70
2018-05-04T15:36:47.941Z,24.60
2018-05-04T15:39:14.004Z,24.60
2018-05-04T15:41:40.093Z,24.50
2018-05-04T15:44:06.231Z,24.50
2018-05-04T15:46:32.312Z,24.40
2018-05-04T15:49:04.618Z,24.40
2018-05-04T15:51:36.690Z,24.30
2018-05-04T15:54:02.768Z,24.30
2018-05-04T15:56:28.852Z,24.20
2018-05-04T15:58:55.013Z,24.10
2018-05-04T16:01:21.096Z,24.10
2018-05-04T16:03:48.001Z,24.10
2018-05-04T16:06:14.188Z,24.00
2018-05-04T16:08:40.216Z,24.00
2018-05-04T16:11:06.317Z,24.00
2018-05-04T16:13:32.501Z,24.00
2018-05-04T16:15:59.292Z,23.90
2018-05-04T16:18:25.677Z,23.80
2018-05-04T16:20:51.962Z,23.90
2018-05-04T16:23:18.053Z,23.90
2018-05-04T16:25:44.192Z,23.80
2018-05-04T16:28:10.277Z,23.80
2018-05-04T16:30:37.163Z,23.70
2018-05-04T16:33:03.958Z,23.70
2018-05-04T16:35:30.097Z,23.70
2018-05-04T16:37:56.242Z,23.60
2018-05-04T16:40:22.497Z,23.60
2018-05-04T16:42:48.604Z,23.60
2018-05-04T16:45:14.680Z,23.50
2018-05-04T16:47:46.968Z,23.50
2018-05-04T16:50:13.378Z,23.40
2018-05-04T16:52:39.503Z,23.30
2018-05-04T16:55:05.624Z,23.30
2018-05-04T16:57:31.717Z,23.20
2018-05-04T16:59:57.837Z,23.20
2018-05-04T17:02:23.954Z,23.20
2018-05-04T17:04:50.040Z,23.10
2018-05-04T17:07:16.916Z,23.10
2018-05-04T17:09:43.118Z,23.00
2018-05-04T17:12:09.999Z,23.00
2018-05-04T17:14:36.491Z,22.90
2018-05-04T17:17:03.370Z,22.90
2018-05-04T17:19:29.493Z,22.80
2018-05-04T17:21:56.404Z,22.80
2018-05-04T17:24:22.485Z,22.70
2018-05-04T17:26:49.325Z,22.60
2018-05-04T17:29:15.504Z,22.60
2018-05-04T17:31:41.576Z,22.60
2018-05-04T17:34:07.782Z,22.50
2018-05-04T17:36:33.874Z,22.40
2018-05-04T17:39:00.100Z,22.40
2018-05-04T17:41:26.984Z,22.20
2018-05-04T17:43:53.080Z,22.10
2018-05-04T17:46:19.938Z,22.00
2018-05-04T17:48:46.056Z,22.00
2018-05-04T17:51:12.354Z,22.00
2018-05-04T17:53:39.214Z,21.80
2018-05-04T17:56:06.061Z,21.80
2018-05-04T18:00:53.520Z,21.70
2018-05-04T18:03:19.621Z,21.60
2018-05-04T18:05:45.879Z,21.50
2018-05-04T18:08:12.061Z,21.50
2018-05-04T18:10:39.005Z,21.40
2018-05-04T18:13:05.173Z,21.30
2018-05-04T18:15:31.260Z,21.30
2018-05-04T18:17:57.406Z,21.20
2018-05-04T18:20:23.484Z,21.10
2018-05-04T18:22:49.877Z,21.10
2018-05-04T18:25:15.983Z,21.00
2018-05-04T18:27:42.861Z,20.80
2018-05-04T18:30:08.992Z,20.80
2018-05-04T18:32:35.269Z,20.80
2018-05-04T18:35:01.376Z,20.70
2018-05-04T18:37:27.506Z,20.70
2018-05-04T18:39:53.596Z,20.60
2018-05-04T18:42:19.697Z,20.50
2018-05-04T18:44:46.616Z,20.40
2018-05-04T18:47:12.688Z,20.30
2018-05-04T18:49:38.796Z,20.30
2018-05-04T18:52:04.872Z,20.20
2018-05-04T18:54:31.002Z,20.10
2018-05-04T18:56:57.323Z,20.00
2018-05-04T18:59:23.449Z,20.00
2018-05-04T19:01:49.610Z,19.90
2018-05-04T19:04:16.082Z,19.80
2018-05-04T19:06:42.573Z,19.80
2018-05-04T19:09:08.785Z,19.70
2018-05-04T19:11:34.876Z,19.60
2018-05-04T19:14:01.047Z,19.60
2018-05-04T19:16:28.162Z,19.50
2018-05-04T19:18:54.432Z,19.40
2018-05-04T19:21:20.589Z,19.40
2018-05-04T19:23:46.904Z,19.30
2018-05-04T19:26:12.985Z,19.30
2018-05-04T19:28:40.560Z,19.10
2018-05-04T19:31:07.439Z,19.10
2018-05-04T19:33:33.608Z,19.00
2018-05-04T19:35:59.686Z,19.10
2018-05-04T19:38:25.817Z,19.00
2018-05-04T19:40:51.938Z,19.00
2018-05-04T19:43:18.089Z,18.90
2018-05-04T19:45:44.193Z,18.80
2018-05-04T19:48:11.033Z,18.70
2018-05-04T19:50:37.136Z,18.70
2018-05-04T19:53:03.219Z,18.70
2018-05-04T19:55:29.321Z,18.60
2018-05-04T19:57:55.437Z,18.60
2018-05-04T20:00:21.553Z,18.50
2018-05-04T20:02:47.730Z,18.50
2018-05-04T20:05:14.625Z,18.40
2018-05-04T20:07:40.747Z,18.40
2018-05-04T20:10:06.879Z,18.40
2018-05-04T20:12:32.993Z,18.30
2018-05-04T20:14:59.127Z,18.20
2018-05-04T20:17:25.241Z,18.20
2018-05-04T20:19:52.064Z,18.20
2018-05-04T20:22:18.218Z,18.10
2018-05-04T20:24:44.518Z,18.10
2018-05-04T20:27:10.589Z,18.00
2018-05-04T20:29:37.560Z,18.00
2018-05-04T20:32:03.664Z,17.90
2018-05-04T20:34:29.754Z,17.90
2018-05-04T20:36:56.021Z,17.90
2018-05-04T20:39:22.939Z,17.80
2018-05-04T20:41:49.010Z,17.70
2018-05-04T20:44:15.215Z,17.80
2018-05-04T20:46:41.248Z,17.70
2018-05-04T20:49:07.378Z,17.70
2018-05-04T20:51:33.518Z,17.60
2018-05-04T20:54:00.325Z,17.60
2018-05-04T20:56:26.432Z,17.50
2018-05-04T20:58:52.640Z,17.50
2018-05-04T21:01:18.737Z,17.50
2018-05-04T21:03:44.945Z,17.40
2018-05-04T21:06:11.087Z,17.40
2018-05-04T21:08:37.230Z,17.30
2018-05-04T21:11:03.321Z,17.30
2018-05-04T21:13:30.168Z,17.20
2018-05-04T21:15:57.020Z,17.20
2018-05-04T21:18:23.880Z,17.10
2018-05-04T21:20:50.000Z,17.10
2018-05-04T21:23:16.825Z,17.10
2018-05-04T21:25:43.077Z,17.00
2018-05-04T21:28:09.948Z,17.00
2018-05-04T21:30:36.052Z,16.90
2018-05-04T21:33:02.273Z,16.90
2018-05-04T21:35:28.357Z,16.90
2018-05-04T21:37:54.456Z,16.90
2018-05-04T21:40:21.289Z,16.80
2018-05-04T21:42:47.678Z,16.70
2018-05-04T21:45:13.785Z,16.80
2018-05-04T21:47:40.601Z,16.70
2018-05-04T21:50:06.692Z,16.60
2018-05-04T21:52:32.786Z,16.60
2018-05-04T21:54:59.652Z,16.50
2018-05-04T21:57:25.789Z,16.50
2018-05-04T22:00:14.526Z,16.50
2018-05-04T22:02:40.645Z,16.50
2018-05-04T22:05:06.748Z,16.40
2018-05-04T22:07:32.847Z,16.40
2018-05-04T22:09:58.924Z,16.30
2018-05-04T22:12:25.028Z,16.30
2018-05-04T22:14:51.122Z,16.20
2018-05-04T22:17:17.209Z,16.20
2018-05-04T22:19:43.328Z,16.20
2018-05-04T22:22:09.404Z,16.10
2018-05-04T22:24:36.243Z,16.10
2018-05-04T22:27:03.326Z,16.10
2018-05-04T22:29:29.428Z,16.00
2018-05-04T22:31:55.571Z,16.00
2018-05-04T22:34:22.393Z,15.90
2018-05-04T22:36:48.518Z,15.90
2018-05-04T22:39:14.589Z,15.90
2018-05-04T22:41:41.480Z,15.90
2018-05-04T22:44:07.652Z,15.80
2018-05-04T22:46:34.493Z,15.80
2018-05-04T22:49:00.577Z,15.80
2018-05-04T22:51:26.700Z,15.80
2018-05-04T22:53:52.779Z,15.70
2018-05-04T22:56:18.860Z,15.70
2018-05-04T22:58:44.987Z,15.70
2018-05-04T23:01:11.111Z,15.60
2018-05-04T23:03:37.203Z,15.60
2018-05-04T23:06:03.799Z,15.60
2018-05-04T23:08:29.883Z,15.60
2018-05-04T23:10:56.043Z,15.50
2018-05-04T23:13:22.892Z,15.50
2018-05-04T23:15:49.709Z,15.40
2018-05-04T23:18:15.783Z,15.40
2018-05-04T23:20:41.882Z,15.40
2018-05-04T23:23:08.001Z,15.40
2018-05-04T23:25:34.085Z,15.30
2018-05-04T23:28:00.221Z,15.30
2018-05-04T23:30:26.333Z,15.20
2018-05-04T23:32:52.569Z,15.20
2018-05-04T23:35:18.644Z,15.20
2018-05-04T23:37:44.769Z,15.10
2018-05-04T23:40:10.875Z,15.10
2018-05-04T23:42:37.004Z,15.10
2018-05-04T23:45:03.857Z,15.00
2018-05-04T23:47:29.942Z,15.00
2018-05-04T23:49:56.151Z,15.00
2018-05-04T23:52:22.328Z,15.00
2018-05-04T23:54:49.176Z,14.90
2018-05-04T23:57:15.238Z,14.90
2018-05-04T23:59:41.362Z,14.90
